Time;durP1;ratioP1;P1;durP2;ratioP2;P2;SDS_P1;SDS_P2;PMS_P1;PMS_P2;Temp;Humidity;BMP_temperature;BMP_pressure;BME280_temperature;BME280_humidity;BME280_pressure;Samples;Min_cycle;Max_cycle;Signal;HPM_P1;HPM_P2
2023/01/12 00:01:11;;;;;;;33.63;4.35;;;;;;;6.91;100.00;100840.22;5064423;28;20512;-75
2023/01/12 00:03:36;;;;;;;33.10;4.68;;;;;;;6.91;100.00;100831.13;5062009;28;20032;-75
2023/01/12 00:06:06;;;;;;;25.98;3.85;;;;;;;6.88;100.00;100828.84;5074504;28;20044;-75
2023/01/12 00:08:33;;;;;;;20.30;3.83;;;;;;;6.88;100.00;100831.63;5065042;28;20448;-75
2023/01/12 00:10:58;;;;;;;22.58;3.65;;;;;;;6.84;100.00;100824.97;5059587;28;20063;-75
2023/01/12 00:13:24;;;;;;;32.97;5.20;;;;;;;6.84;100.00;100823.03;5043497;28;20406;-75
2023/01/12 00:18:33;;;;;;;31.45;4.28;;;;;;;6.83;100.00;100810.34;5061138;28;20032;-75
2023/01/12 00:20:59;;;;;;;28.83;4.80;;;;;;;6.83;100.00;100807.56;5057881;28;20041;-74
2023/01/12 00:23:28;;;;;;;32.80;5.28;;;;;;;6.83;100.00;100815.84;5067114;28;20417;-75
2023/01/12 00:25:53;;;;;;;33.78;4.82;;;;;;;6.82;100.00;100822.44;5061783;28;20437;-74
2023/01/12 00:28:19;;;;;;;31.50;4.03;;;;;;;6.81;100.00;100809.75;5071687;28;20072;-75
2023/01/12 00:30:44;;;;;;;32.80;4.63;;;;;;;6.81;100.00;100811.69;5067844;28;20025;-75
2023/01/12 00:33:10;;;;;;;32.88;4.45;;;;;;;6.81;100.00;100812.50;5055385;28;20401;-75
2023/01/12 00:35:35;;;;;;;35.05;4.50;;;;;;;6.83;100.00;100796.53;5062175;28;20033;-75
2023/01/12 00:38:02;;;;;;;45.47;5.28;;;;;;;6.85;100.00;100786.06;5065150;28;20060;-75
2023/01/12 00:40:27;;;;;;;48.22;5.80;;;;;;;6.84;100.00;100795.41;5067337;28;20032;-74
2023/01/12 00:45:37;;;;;;;38.28;4.13;;;;;;;6.88;100.00;100796.56;5054967;28;20078;-75
2023/01/12 00:48:02;;;;;;;34.90;5.10;;;;;;;6.90;100.00;100799.06;5054986;28;20033;-75
2023/01/12 00:50:28;;;;;;;45.13;4.57;;;;;;;6.91;100.00;100800.75;5055261;28;20065;-75
2023/01/12 00:52:53;;;;;;;40.05;5.13;;;;;;;6.94;100.00;100790.00;5062044;28;20020;-75
2023/01/12 00:55:19;;;;;;;43.55;4.53;;;;;;;6.96;100.00;100791.66;5064670;28;20033;-75
2023/01/12 00:57:44;;;;;;;38.80;4.68;;;;;;;6.97;100.00;100782.28;5067035;28;20029;-75
2023/01/12 01:00:10;;;;;;;31.30;4.00;;;;;;;7.00;100.00;100792.81;5062806;28;20025;-75
2023/01/12 01:02:36;;;;;;;35.63;4.22;;;;;;;7.02;100.00;100785.06;5067821;28;20480;-75
2023/01/12 01:05:01;;;;;;;32.97;3.67;;;;;;;7.05;100.00;100790.06;5054840;28;20033;-75
2023/01/12 01:07:27;;;;;;;39.70;5.28;;;;;;;7.07;100.00;100777.66;5055230;28;20029;-75
2023/01/12 01:09:52;;;;;;;40.00;4.45;;;;;;;7.09;100.00;100796.75;5065427;28;20119;-75
2023/01/12 01:12:18;;;;;;;33.03;4.32;;;;;;;7.13;100.00;100786.81;5064136;28;20025;-74
2023/01/12 01:14:43;;;;;;;39.13;5.05;;;;;;;7.15;100.00;100795.69;5065322;28;20078;-75
2023/01/12 01:17:09;;;;;;;34.45;4.30;;;;;;;7.16;100.00;100772.50;5050518;28;20504;-75
2023/01/12 01:19:35;;;;;;;32.60;3.72;;;;;;;7.17;100.00;100779.69;5065236;28;20037;-75
2023/01/12 01:22:01;;;;;;;33.08;4.18;;;;;;;7.20;100.00;100781.91;5054632;28;20036;-75
2023/01/12 01:24:26;;;;;;;37.58;4.57;;;;;;;7.21;100.00;100789.09;5062890;28;20029;-75
2023/01/12 01:26:52;;;;;;;40.10;4.38;;;;;;;7.25;100.00;100768.13;5071884;28;20040;-75
2023/01/12 01:29:17;;;;;;;37.40;4.82;;;;;;;7.25;100.00;100750.75;5064792;28;20025;-75
2023/01/12 01:31:43;;;;;;;35.45;4.38;;;;;;;7.28;100.00;100773.13;5054607;28;20036;-75
2023/01/12 01:34:08;;;;;;;36.53;4.55;;;;;;;7.30;100.00;100764.56;5054638;28;20086;-75
2023/01/12 01:36:34;;;;;;;32.25;4.40;;;;;;;7.29;100.00;100754.63;5072178;28;20052;-75
2023/01/12 01:38:59;;;;;;;38.03;4.53;;;;;;;7.29;100.00;100757.38;5072495;28;20134;-75
2023/01/12 01:41:29;;;;;;;30.00;5.00;;;;;;;7.30;100.00;100765.41;5054579;28;20091;-75
2023/01/12 01:43:57;;;;;;;40.97;5.00;;;;;;;7.31;100.00;100761.53;5070163;28;20782;-75
2023/01/12 01:46:32;;;;;;;31.60;4.00;;;;;;;7.34;100.00;100776.75;5066476;28;20453;-75
2023/01/12 01:49:04;;;;;;;35.65;4.90;;;;;;;7.34;100.00;100771.22;5064573;28;20028;-75
2023/01/12 01:51:29;;;;;;;32.22;3.88;;;;;;;7.36;100.00;100763.53;5038529;28;20029;-75
2023/01/12 01:53:55;;;;;;;26.83;3.42;;;;;;;7.39;100.00;100757.47;5069774;28;20024;-74
2023/01/12 01:56:24;;;;;;;31.45;3.95;;;;;;;7.38;100.00;100755.78;5054707;28;20040;-75
2023/01/12 01:58:56;;;;;;;36.40;4.70;;;;;;;7.44;100.00;100751.97;5054428;28;20390;-75
2023/01/12 02:01:22;;;;;;;34.90;4.05;;;;;;;7.44;100.00;100751.09;5073774;28;20060;-75
2023/01/12 02:03:47;;;;;;;32.83;4.47;;;;;;;7.46;100.00;100746.16;5065035;28;20040;-75
2023/01/12 02:06:13;;;;;;;38.10;4.65;;;;;;;7.49;100.00;100753.91;5064705;28;20041;-75
2023/01/12 02:08:56;;;;;;;40.67;4.53;;;;;;;7.53;100.00;100752.28;5048155;28;20384;-75
2023/01/12 02:17:03;;;;;;;30.85;3.75;;;;;;;7.55;100.00;100761.13;5066491;28;20032;-75
2023/01/12 02:19:57;;;;;;;32.45;4.55;;;;;;;7.55;100.00;100752.81;5057750;28;20545;-75
2023/01/12 02:22:44;;;;;;;30.85;3.97;;;;;;;7.59;100.00;100748.44;5075842;28;20104;-75
2023/01/12 02:25:09;;;;;;;34.53;4.15;;;;;;;7.61;100.00;100751.78;5074658;28;20075;-75
2023/01/12 02:27:58;;;;;;;27.92;3.88;;;;;;;7.63;100.00;100745.97;5084953;28;20037;-75
2023/01/12 02:30:47;;;;;;;27.92;3.78;;;;;;;7.63;100.00;100749.56;5073039;28;20033;-75
2023/01/12 02:33:15;;;;;;;29.27;3.55;;;;;;;7.64;100.00;100744.88;5071887;28;20036;-75
2023/01/12 02:36:13;;;;;;;22.88;3.63;;;;;;;7.66;100.00;100734.38;5070402;28;20250;-75
2023/01/12 02:38:50;;;;;;;28.42;3.83;;;;;;;7.68;100.00;100730.25;5066094;28;20052;-75
2023/01/12 02:44:27;;;;;;;32.42;4.18;;;;;;;7.71;100.00;100735.22;5070330;28;20716;-75
2023/01/12 02:46:52;;;;;;;28.85;3.75;;;;;;;7.71;100.00;100745.47;5070289;28;20036;-75
2023/01/12 02:49:20;;;;;;;30.05;3.67;;;;;;;7.72;100.00;100750.72;5069317;28;20029;-75
2023/01/12 02:52:06;;;;;;;27.08;4.57;;;;;;;7.75;100.00;100747.44;5063256;28;20024;-75
2023/01/12 02:54:32;;;;;;;25.20;3.50;;;;;;;7.77;100.00;100734.16;5072231;28;20089;-75
2023/01/12 02:57:01;;;;;;;25.58;3.60;;;;;;;7.77;100.00;100730.53;5062725;28;20489;-75
2023/01/12 02:59:37;;;;;;;24.15;3.63;;;;;;;7.79;100.00;100744.94;5069620;28;20035;-75
2023/01/12 03:02:22;;;;;;;27.13;3.33;;;;;;;7.81;100.00;100734.44;5064422;28;20025;-75
2023/01/12 03:04:47;;;;;;;27.65;3.35;;;;;;;7.83;100.00;100751.63;5041472;28;20469;-75
2023/01/12 03:07:13;;;;;;;26.75;3.42;;;;;;;7.83;100.00;100744.16;5070177;28;20033;-75
2023/01/12 03:09:42;;;;;;;26.55;3.33;;;;;;;7.86;100.00;100744.72;5076824;28;20538;-75
2023/01/12 03:12:13;;;;;;;26.50;3.35;;;;;;;7.87;100.00;100743.59;5046607;28;20100;-75
2023/01/12 03:14:45;;;;;;;26.35;3.00;;;;;;;7.91;100.00;100741.94;5067806;28;20091;-75
2023/01/12 03:17:35;;;;;;;23.02;2.90;;;;;;;7.89;100.00;100744.16;5071642;28;20083;-75
2023/01/12 03:20:13;;;;;;;32.08;4.20;;;;;;;7.89;100.00;100725.63;5056267;28;20052;-75
2023/01/12 03:22:39;;;;;;;33.40;7.72;;;;;;;7.91;100.00;100711.53;5071112;28;20036;-75
2023/01/12 03:25:09;;;;;;;33.83;7.57;;;;;;;7.90;100.00;100724.53;5068949;28;20636;-75
2023/01/12 03:27:39;;;;;;;28.17;6.55;;;;;;;7.91;100.00;100714.28;5075536;28;20032;-75
2023/01/12 03:30:15;;;;;;;24.23;4.82;;;;;;;7.90;100.00;100710.69;5060579;28;20033;-75
2023/01/12 03:32:41;;;;;;;25.55;4.45;;;;;;;7.92;100.00;100710.44;5069861;28;20519;-75
2023/01/12 03:35:08;;;;;;;21.77;4.28;;;;;;;7.92;100.00;100713.22;5080132;28;20040;-75
2023/01/12 03:37:36;;;;;;;20.98;3.92;;;;;;;7.90;100.00;100696.88;5065394;28;20128;-75
2023/01/12 03:40:09;;;;;;;18.98;3.70;;;;;;;7.93;100.00;100714.84;5055336;28;20036;-75
2023/01/12 03:42:59;;;;;;;23.60;3.47;;;;;;;7.94;100.00;100719.28;5071706;28;20067;-75
2023/01/12 03:46:26;;;;;;;22.98;3.30;;;;;;;7.95;100.00;100704.38;5069360;28;20061;-75
2023/01/12 03:49:06;;;;;;;15.73;3.15;;;;;;;7.96;100.00;100715.13;5051999;28;20055;-75
2023/01/12 03:51:36;;;;;;;21.08;3.22;;;;;;;7.98;100.00;100720.41;5056782;28;20033;-75
2023/01/12 03:54:03;;;;;;;24.98;4.55;;;;;;;7.97;100.00;100724.28;5058670;28;20033;-75
2023/01/12 03:56:30;;;;;;;19.27;2.90;;;;;;;7.97;100.00;100718.75;5038392;28;20496;-75
2023/01/12 03:58:56;;;;;;;19.30;2.65;;;;;;;8.01;100.00;100726.22;5074390;28;20037;-75
2023/01/12 04:01:21;;;;;;;15.48;2.70;;;;;;;8.02;100.00;100721.50;5055778;28;20041;-75
2023/01/12 04:03:46;;;;;;;20.60;3.03;;;;;;;8.02;100.00;100727.03;5086393;28;20036;-75
2023/01/12 04:06:12;;;;;;;18.90;3.13;;;;;;;8.03;100.00;100723.19;5062340;28;20027;-75
2023/01/12 04:08:37;;;;;;;19.15;2.92;;;;;;;8.03;100.00;100726.78;5054358;28;20033;-75
2023/01/12 04:13:47;;;;;;;21.17;3.03;;;;;;;8.04;100.00;100714.59;5070358;28;20090;-75
2023/01/12 04:16:13;;;;;;;25.25;3.60;;;;;;;8.04;100.00;100698.00;5062067;28;20028;-75
2023/01/12 04:18:38;;;;;;;23.63;3.08;;;;;;;8.07;100.00;100697.47;5071079;28;20481;-75
2023/01/12 04:21:04;;;;;;;19.02;3.25;;;;;;;8.09;100.00;100672.31;5071291;28;20033;-75
2023/01/12 04:23:29;;;;;;;26.30;3.90;;;;;;;8.09;100.00;100669.53;5069323;28;20032;-75
2023/01/12 04:25:55;;;;;;;19.75;2.72;;;;;;;8.07;100.00;100666.22;5049855;28;20032;-75
2023/01/12 04:28:20;;;;;;;18.77;3.15;;;;;;;8.08;100.00;100670.66;5055271;28;20422;-75
2023/01/12 04:30:45;;;;;;;28.98;4.00;;;;;;;8.09;100.00;100672.31;5071279;28;20025;-75
2023/01/12 04:33:11;;;;;;;22.27;3.40;;;;;;;8.09;100.00;100675.06;5054156;28;20094;-75
2023/01/12 04:35:36;;;;;;;21.63;3.35;;;;;;;8.09;100.00;100669.53;5082662;28;20031;-75
2023/01/12 04:38:06;;;;;;;26.08;3.13;;;;;;;8.09;100.00;100672.31;5062916;28;20443;-75
2023/01/12 04:40:31;;;;;;;18.60;3.50;;;;;;;8.09;100.00;100672.31;5055298;28;20105;-75
2023/01/12 04:42:59;;;;;;;22.23;3.78;;;;;;;8.07;100.00;100680.03;5055186;28;20025;-75
2023/01/12 04:45:25;;;;;;;23.73;3.35;;;;;;;8.08;100.00;100670.66;5058357;28;20559;-75
2023/01/12 04:47:51;;;;;;;28.65;4.25;;;;;;;8.05;100.00;100671.19;5055047;28;20029;-75
2023/01/12 04:50:16;;;;;;;23.55;3.97;;;;;;;8.06;100.00;100656.25;5055088;28;20033;-75
2023/01/12 04:52:42;;;;;;;23.13;3.55;;;;;;;8.08;100.00;100654.06;5060075;28;20038;-75
2023/01/12 04:55:07;;;;;;;23.08;3.38;;;;;;;8.08;100.00;100648.53;5066044;28;20040;-75
2023/01/12 04:57:33;;;;;;;21.00;3.55;;;;;;;8.10;100.00;100648.25;5053968;28;20036;-75
2023/01/12 04:59:58;;;;;;;27.83;3.35;;;;;;;8.10;100.00;100649.06;5055075;28;20029;-75
2023/01/12 05:02:24;;;;;;;19.98;3.42;;;;;;;8.13;100.00;100667.88;5054876;28;20041;-75
2023/01/12 05:04:49;;;;;;;20.30;3.20;;;;;;;8.14;100.00;100664.03;5054778;28;20040;-75
2023/01/12 05:07:15;;;;;;;21.58;3.38;;;;;;;8.15;100.00;100653.78;5068250;28;20025;-75
2023/01/12 05:12:25;;;;;;;22.30;3.00;;;;;;;8.15;100.00;100651.84;5071297;28;20123;-75
2023/01/12 05:14:51;;;;;;;23.35;3.55;;;;;;;8.17;100.00;100654.34;5063857;28;20056;-75
2023/01/12 05:17:16;;;;;;;25.90;3.78;;;;;;;8.17;100.00;100652.41;5053762;28;20099;-75
2023/01/12 05:19:42;;;;;;;16.58;3.10;;;;;;;8.18;100.00;100640.22;5070450;28;20040;-75
2023/01/12 05:22:07;;;;;;;23.88;3.53;;;;;;;8.18;100.00;100654.06;5054872;28;20043;-75
2023/01/12 05:24:33;;;;;;;23.98;2.97;;;;;;;8.19;100.00;100661.28;5054555;28;20520;-75
2023/01/12 05:27:02;;;;;;;22.15;2.80;;;;;;;8.22;100.00;100654.38;5054460;28;20547;-75
2023/01/12 05:29:27;;;;;;;23.58;2.40;;;;;;;8.23;100.00;100650.47;5060530;28;20021;-75
2023/01/12 05:31:53;;;;;;;21.27;2.50;;;;;;;8.21;100.00;100647.97;5054710;28;20029;-75
2023/01/12 05:34:19;;;;;;;19.55;2.53;;;;;;;8.24;100.00;100647.41;5063919;28;20033;-75
2023/01/12 05:36:47;;;;;;;17.48;3.60;;;;;;;8.24;100.00;100635.53;5073304;28;20049;-75
2023/01/12 05:39:12;;;;;;;20.92;2.97;;;;;;;8.24;100.00;100643.81;5072631;28;20110;-75
2023/01/12 05:43:48;;;;;;;15.55;2.83;;;;;;;8.23;100.00;100628.34;5054572;28;20063;-75
2023/01/12 05:44:23;;;;;;;21.05;3.53;;;;;;;8.21;100.00;100608.41;5054460;28;20029;-75
2023/01/12 05:46:49;;;;;;;22.67;2.97;;;;;;;8.21;100.00;100600.94;5054688;28;20025;-75
2023/01/12 05:49:14;;;;;;;22.48;3.85;;;;;;;8.20;100.00;100607.59;5069873;28;20040;-75
2023/01/12 05:51:40;;;;;;;26.58;4.35;;;;;;;8.19;100.00;100621.69;5065908;28;20102;-75
2023/01/12 05:54:05;;;;;;;16.15;3.53;;;;;;;8.21;100.00;100623.06;5071011;28;20051;-75
2023/01/12 05:56:32;;;;;;;23.02;4.30;;;;;;;8.21;100.00;100622.25;5056076;28;20465;-75
2023/01/12 05:58:58;;;;;;;20.77;3.50;;;;;;;8.18;100.00;100615.31;5058293;28;20040;-75
2023/01/12 06:01:24;;;;;;;23.15;3.30;;;;;;;8.18;100.00;100611.72;5080852;28;20040;-75
2023/01/12 06:03:51;;;;;;;28.05;3.78;;;;;;;8.19;100.00;100597.63;5062827;28;20477;-75
2023/01/12 06:06:17;;;;;;;23.70;3.28;;;;;;;8.18;100.00;100603.44;5065836;28;20021;-75
2023/01/12 06:08:43;;;;;;;23.33;3.28;;;;;;;8.17;100.00;100602.59;5074339;28;20028;-75
2023/01/12 06:13:55;;;;;;;26.85;4.20;;;;;;;8.17;100.00;100602.59;5067031;28;20037;-75
2023/01/12 06:13:57;;;;;;;31.23;4.50;;;;;;;8.19;100.00;100602.31;5067330;28;20037;-75
2023/01/12 06:16:22;;;;;;;26.63;3.55;;;;;;;8.19;100.00;100603.19;5047582;28;20023;-75
2023/01/12 06:18:48;;;;;;;28.23;3.33;;;;;;;8.19;100.00;100600.41;5068044;28;20028;-74
2023/01/12 06:21:13;;;;;;;23.20;3.55;;;;;;;8.20;100.00;100601.22;5064272;28;20033;-75
2023/01/12 06:23:39;;;;;;;24.67;3.20;;;;;;;8.23;100.00;100608.97;5062865;28;20048;-75
2023/01/12 06:26:06;;;;;;;26.80;3.67;;;;;;;8.21;100.00;100623.06;5064808;28;20025;-75
2023/01/12 06:28:31;;;;;;;17.80;2.97;;;;;;;8.23;100.00;100629.16;5041139;28;20037;-75
2023/01/12 06:30:57;;;;;;;36.63;3.70;;;;;;;8.23;100.00;100629.16;5064536;28;20033;-75
2023/01/12 06:33:24;;;;;;;23.23;2.95;;;;;;;8.24;100.00;100618.94;5046979;28;20465;-75
2023/01/12 06:35:49;;;;;;;35.85;4.45;;;;;;;8.24;100.00;100614.22;5075172;28;20032;-75
2023/01/12 06:38:15;;;;;;;21.20;3.03;;;;;;;8.25;100.00;100615.91;5064000;28;20056;-75
2023/01/12 06:40:40;;;;;;;26.35;2.85;;;;;;;8.26;100.00;100616.72;5066486;28;20041;-75
2023/01/12 06:43:06;;;;;;;31.25;4.00;;;;;;;8.26;100.00;100617.53;5065565;28;20029;-75
2023/01/12 06:45:31;;;;;;;24.05;3.03;;;;;;;8.27;100.00;100612.84;5074628;28;20607;-75
2023/01/12 06:47:57;;;;;;;21.08;2.95;;;;;;;8.26;100.00;100611.19;5065538;28;20036;-75
2023/01/12 06:50:23;;;;;;;23.25;3.00;;;;;;;8.26;100.00;100609.25;5065632;28;20031;-75
2023/01/12 06:52:49;;;;;;;23.77;3.20;;;;;;;8.25;100.00;100621.44;5066572;28;20024;-75
2023/01/12 06:55:14;;;;;;;34.47;4.15;;;;;;;8.28;100.00;100612.56;5067098;28;20029;-75
2023/01/12 06:57:40;;;;;;;26.00;3.70;;;;;;;8.27;100.00;100613.69;5055478;28;20100;-75
2023/01/12 07:00:06;;;;;;;22.25;3.80;;;;;;;8.28;100.00;100618.09;5056097;28;20029;-75
2023/01/12 07:02:31;;;;;;;19.80;2.83;;;;;;;8.29;100.00;100622.53;5056806;28;20040;-75
2023/01/12 07:04:57;;;;;;;21.50;3.10;;;;;;;8.30;100.00;100612.28;5072689;28;20039;-75
2023/01/12 07:07:22;;;;;;;22.08;3.17;;;;;;;8.29;100.00;100616.16;5069476;28;20033;-75
2023/01/12 07:09:48;;;;;;;25.75;3.30;;;;;;;8.29;100.00;100605.91;5072374;28;20029;-75
2023/01/12 07:12:13;;;;;;;19.92;2.97;;;;;;;8.30;100.00;100606.75;5057432;28;20033;-75
2023/01/12 07:14:39;;;;;;;19.50;2.58;;;;;;;8.30;100.00;100606.75;5062534;28;20020;-75
2023/01/12 07:17:04;;;;;;;17.83;3.08;;;;;;;8.30;100.00;100617.81;5058727;28;20082;-75
2023/01/12 07:19:30;;;;;;;19.63;3.22;;;;;;;8.31;100.00;100615.91;5075634;28;20492;-75
2023/01/12 07:21:55;;;;;;;25.45;3.03;;;;;;;8.30;100.00;100603.97;5075625;28;20025;-75
2023/01/12 07:24:21;;;;;;;23.70;3.13;;;;;;;8.33;100.00;100605.38;5055194;28;20039;-75
2023/01/12 07:26:49;;;;;;;32.05;4.05;;;;;;;8.32;100.00;100604.53;5071930;28;20033;-74
2023/01/12 07:29:15;;;;;;;15.90;2.78;;;;;;;8.32;100.00;100606.47;5056231;28;20029;-75
2023/01/12 07:31:43;;;;;;;24.10;3.20;;;;;;;8.31;100.00;100602.06;5085256;28;20036;-75
2023/01/12 07:34:08;;;;;;;25.52;3.08;;;;;;;8.31;100.00;100596.53;5057132;28;20568;-75
2023/01/12 07:36:34;;;;;;;29.75;3.47;;;;;;;8.33;100.00;100597.06;5092669;28;20049;-75
2023/01/12 07:39:00;;;;;;;25.48;3.58;;;;;;;8.29;100.00;100594.84;5071853;28;20032;-75
2023/01/12 07:44:09;;;;;;;23.50;3.28;;;;;;;8.29;100.00;100594.84;5077196;28;20207;-75
2023/01/12 07:46:35;;;;;;;20.00;2.72;;;;;;;8.29;100.00;100594.84;5072665;28;20036;-75
2023/01/12 07:49:00;;;;;;;17.23;3.33;;;;;;;8.27;100.00;100597.09;5076223;28;20032;-75
2023/01/12 07:51:26;;;;;;;18.88;2.80;;;;;;;8.27;100.00;100597.09;5058247;28;20029;-74
2023/01/12 07:53:51;;;;;;;20.85;2.78;;;;;;;8.31;100.00;100607.59;5059623;28;20409;-75
2023/01/12 07:56:18;;;;;;;17.88;3.28;;;;;;;8.29;100.00;100600.38;5055400;28;20693;-75
2023/01/12 07:58:47;;;;;;;28.02;3.13;;;;;;;8.32;100.00;100598.19;5055684;28;20029;-74
2023/01/12 08:01:12;;;;;;;20.95;2.90;;;;;;;8.29;100.00;100581.00;5070739;28;20037;-74
2023/01/12 08:03:38;;;;;;;20.30;3.80;;;;;;;8.31;100.00;100591.00;5058048;28;20028;-74
2023/01/12 08:06:04;;;;;;;24.73;3.35;;;;;;;8.32;100.00;100593.47;5059118;28;20029;-75
2023/01/12 08:08:29;;;;;;;22.25;3.20;;;;;;;8.32;100.00;100599.00;5075385;28;20094;-75
2023/01/12 08:11:08;;;;;;;22.30;3.63;;;;;;;8.33;100.00;100599.84;5058526;28;20116;-75
2023/01/12 08:13:34;;;;;;;24.08;3.47;;;;;;;8.33;100.00;100603.44;5082372;28;20067;-75
2023/01/12 08:16:04;;;;;;;24.67;3.08;;;;;;;8.35;100.00;100586.56;5056633;28;20033;-75
2023/01/12 08:18:33;;;;;;;18.70;3.35;;;;;;;8.36;100.00;100588.22;5070777;28;20522;-73
2023/01/12 08:20:59;;;;;;;26.73;2.63;;;;;;;8.37;100.00;100600.94;5074795;28;20028;-74
2023/01/12 08:23:31;;;;;;;22.98;2.78;;;;;;;8.38;100.00;100602.59;5071326;28;20036;-74
2023/01/12 08:26:03;;;;;;;28.33;2.88;;;;;;;8.38;100.00;100586.00;5067108;28;20035;-74
2023/01/12 08:28:35;;;;;;;26.40;3.65;;;;;;;8.42;100.00;100596.28;5067714;28;20043;-74
2023/01/12 08:31:00;;;;;;;23.23;3.17;;;;;;;8.42;100.00;100599.03;5049083;28;20496;-74
2023/01/12 08:33:26;;;;;;;31.02;3.42;;;;;;;8.46;100.00;100594.59;5061516;28;20029;-74
2023/01/12 08:35:51;;;;;;;27.23;3.67;;;;;;;8.48;100.00;100591.56;5059286;28;20036;-74
2023/01/12 08:38:18;;;;;;;25.13;3.25;;;;;;;8.49;100.00;100580.19;5061284;28;20059;-74
2023/01/12 08:46:12;;;;;;;24.73;3.67;;;;;;;8.54;100.00;100582.16;5075395;28;20039;-74
2023/01/12 08:48:38;;;;;;;22.98;3.45;;;;;;;8.54;100.00;100582.16;5067910;28;20033;-74
2023/01/12 08:51:04;;;;;;;30.35;3.90;;;;;;;8.54;100.00;100573.84;5070762;28;20032;-74
2023/01/12 08:53:30;;;;;;;29.88;3.20;;;;;;;8.57;100.00;100578.81;5057524;28;20496;-74
2023/01/12 08:55:55;;;;;;;28.60;3.20;;;;;;;8.57;100.00;100573.28;5060096;28;20029;-74
2023/01/12 08:58:21;;;;;;;21.20;2.88;;;;;;;8.58;100.00;100563.88;5058755;28;20384;-74
2023/01/12 09:00:47;;;;;;;24.33;3.53;;;;;;;8.61;100.00;100571.63;5061399;28;20435;-74
2023/01/12 09:03:12;;;;;;;27.27;3.30;;;;;;;8.62;100.00;100573.28;5070775;28;20025;-74
2023/01/12 09:05:38;;;;;;;23.08;3.17;;;;;;;8.67;100.00;100577.97;5055044;28;20029;-74
2023/01/12 09:08:04;;;;;;;28.27;3.35;;;;;;;8.70;100.00;100578.25;5068058;28;20079;-74
2023/01/12 09:10:30;;;;;;;28.25;3.58;;;;;;;8.74;100.00;100586.81;5054556;28;20103;-74
2023/01/12 09:12:55;;;;;;;26.27;3.95;;;;;;;8.78;100.00;100584.34;5062172;28;20037;-74
2023/01/12 09:15:21;;;;;;;22.92;3.38;;;;;;;8.79;100.00;100581.28;5037043;28;20347;-74
2023/01/12 09:17:53;;;;;;;27.02;3.03;;;;;;;8.83;100.00;100599.00;5077954;28;20021;-74
2023/01/12 09:20:19;;;;;;;32.40;3.88;;;;;;;8.87;100.00;100599.25;5060636;28;20025;-74
2023/01/12 09:22:45;;;;;;;26.15;3.58;;;;;;;8.88;100.00;100600.91;5078027;28;20508;-74
2023/01/12 09:25:10;;;;;;;24.35;3.28;;;;;;;8.90;100.00;100593.16;5060029;28;20040;-74
2023/01/12 09:27:37;;;;;;;25.25;3.33;;;;;;;8.95;100.00;100595.91;5078092;28;20029;-74
2023/01/12 09:30:04;;;;;;;38.65;4.05;;;;;;;8.98;100.00;100595.34;5058155;28;20041;-74
2023/01/12 09:32:29;;;;;;;30.45;3.88;;;;;;;9.01;100.00;100586.47;5058088;28;20025;-74
2023/01/12 09:34:55;;;;;;;29.30;3.97;;;;;;;9.04;100.00;100587.84;5060927;28;20043;-75
2023/01/12 09:37:21;;;;;;;27.83;3.53;;;;;;;9.06;100.00;100592.00;5057948;28;20133;-74
2023/01/12 09:39:46;;;;;;;26.67;3.30;;;;;;;9.09;100.00;100587.84;5061829;28;20056;-74
2023/01/12 09:48:04;;;;;;;34.80;4.65;;;;;;;9.15;100.00;100590.31;5070583;28;20035;-74
2023/01/12 09:50:32;;;;;;;32.03;4.50;;;;;;;9.17;100.00;100596.41;5059398;28;20084;-74
2023/01/12 09:53:17;;;;;;;27.38;4.95;;;;;;;9.19;100.00;100590.56;5081367;28;20028;-74
2023/01/12 09:55:46;;;;;;;29.13;3.97;;;;;;;9.23;100.00;100599.16;5065151;28;20035;-74
2023/01/12 09:58:40;;;;;;;29.25;4.82;;;;;;;9.23;100.00;100596.38;5073509;28;20033;-74
2023/01/12 10:01:12;;;;;;;28.88;4.20;;;;;;;9.24;100.00;100592.50;5058111;28;20084;-74
2023/01/12 10:03:40;;;;;;;32.58;4.85;;;;;;;9.26;100.00;100582.78;5058132;28;20116;-74
2023/01/12 10:06:07;;;;;;;38.10;5.05;;;;;;;9.28;100.00;100597.19;5060743;28;20024;-74
2023/01/12 10:08:46;;;;;;;32.28;4.32;;;;;;;9.27;100.00;100591.91;5066437;28;20116;-74
2023/01/12 10:11:44;;;;;;;31.90;4.35;;;;;;;9.27;100.00;100597.47;5073721;28;20036;-74
2023/01/12 10:14:22;;;;;;;30.63;4.40;;;;;;;9.30;100.00;100594.13;5071078;28;20033;-74
2023/01/12 10:16:57;;;;;;;29.45;3.72;;;;;;;9.33;100.00;100596.31;5058282;28;20031;-74
2023/01/12 10:19:30;;;;;;;29.05;3.58;;;;;;;9.34;100.00;100589.69;5058642;28;20112;-74
2023/01/12 10:21:56;;;;;;;28.65;4.47;;;;;;;9.33;100.00;100599.94;5074297;28;20028;-74
2023/01/12 10:24:22;;;;;;;38.42;4.32;;;;;;;9.37;100.00;100586.34;5068618;28;20563;-74
2023/01/12 10:26:52;;;;;;;27.98;4.18;;;;;;;9.41;100.00;100581.88;5074334;28;20029;-74
2023/01/12 10:29:19;;;;;;;31.42;4.40;;;;;;;9.41;100.00;100584.66;5042911;28;20059;-74
2023/01/12 10:31:45;;;;;;;40.03;4.97;;;;;;;9.47;100.00;100588.22;5062952;28;20064;-74
2023/01/12 10:34:11;;;;;;;27.40;4.47;;;;;;;9.48;100.00;100571.31;5069559;28;20040;-74
2023/01/12 10:36:45;;;;;;;27.98;3.97;;;;;;;9.51;100.00;100565.19;5075694;28;20121;-75
2023/01/12 10:39:33;;;;;;;29.73;3.95;;;;;;;9.55;100.00;100566.28;5069739;28;20111;-74
2023/01/12 10:45:22;;;;;;;27.38;4.25;;;;;;;9.63;100.00;100556.53;5072388;28;20086;-74
2023/01/12 10:47:49;;;;;;;27.08;4.28;;;;;;;9.65;100.00;100551.53;5070083;28;20024;-74
2023/01/12 10:50:27;;;;;;;44.13;5.03;;;;;;;9.65;100.00;100537.66;5057065;28;20068;-74
2023/01/12 10:52:58;;;;;;;39.75;4.45;;;;;;;9.71;100.00;100541.25;5088856;28;20052;-75
2023/01/12 10:55:24;;;;;;;30.70;4.18;;;;;;;9.72;100.00;100534.56;5066210;28;20473;-74
2023/01/12 10:57:50;;;;;;;35.13;4.38;;;;;;;9.72;100.00;100537.34;5072384;28;20090;-74
2023/01/12 11:00:23;;;;;;;30.35;4.53;;;;;;;9.70;100.00;100539.59;5072268;28;20029;-74
2023/01/12 11:02:48;;;;;;;32.65;4.22;;;;;;;9.71;100.00;100532.91;5074130;28;20780;-74
2023/01/12 11:05:37;;;;;;;27.70;4.15;;;;;;;9.72;100.00;100537.34;5061627;28;20057;-74
2023/01/12 11:08:26;;;;;;;29.70;4.07;;;;;;;9.74;100.00;100529.56;5046792;28;20068;-74
2023/01/12 11:10:51;;;;;;;34.22;4.93;;;;;;;9.71;100.00;100535.69;5072751;28;20479;-74
2023/01/12 11:13:35;;;;;;;34.63;3.95;;;;;;;9.70;100.00;100525.72;5082438;28;20056;-74
2023/01/12 11:16:42;;;;;;;39.35;4.70;;;;;;;9.67;100.00;100520.72;5063757;28;20040;-74
2023/01/12 11:19:20;;;;;;;31.30;4.32;;;;;;;9.71;100.00;100516.28;5050332;28;20030;-74
2023/01/12 11:21:52;;;;;;;30.33;4.30;;;;;;;9.69;100.00;100502.69;5036092;28;20496;-74
2023/01/12 11:24:29;;;;;;;31.90;4.72;;;;;;;9.73;100.00;100500.19;5019280;28;20139;-74
2023/01/12 11:26:58;;;;;;;31.30;4.20;;;;;;;9.76;100.00;100488.50;5028514;28;20033;-74
2023/01/12 11:29:31;;;;;;;29.00;4.25;;;;;;;9.77;100.00;100488.22;5030058;28;20041;-75
2023/01/12 11:32:00;;;;;;;30.08;5.03;;;;;;;9.81;100.00;100489.31;5022509;28;20029;-74
2023/01/12 11:34:29;;;;;;;30.02;4.38;;;;;;;9.87;100.00;100490.09;5017000;28;20037;-74
2023/01/12 11:37:03;;;;;;;25.52;3.30;;;;;;;9.89;100.00;100485.09;5026419;28;20045;-75
2023/01/12 11:39:28;;;;;;;33.22;4.38;;;;;;;9.93;100.00;100472.28;5054165;28;20052;-75
2023/01/12 11:45:02;;;;;;;28.77;4.07;;;;;;;10.05;100.00;100481.03;5009624;28;20040;-75
2023/01/12 11:47:31;;;;;;;23.42;4.43;;;;;;;10.13;100.00;100459.34;5032610;28;20113;-74
2023/01/12 11:50:17;;;;;;;33.50;4.53;;;;;;;10.17;100.00;100466.78;5059443;28;20050;-75
2023/01/12 11:52:43;;;;;;;26.30;3.75;;;;;;;10.25;100.00;100468.09;5066870;28;20021;-74
2023/01/12 11:55:17;;;;;;;27.80;3.85;;;;;;;10.27;100.00;100461.16;5067645;28;20040;-74
2023/01/12 11:58:09;;;;;;;30.25;3.65;;;;;;;10.33;100.00;100456.38;5071225;28;20033;-74
2023/01/12 12:00:48;;;;;;;21.20;3.42;;;;;;;10.37;100.00;100460.25;5071742;28;20056;-74
2023/01/12 12:03:37;;;;;;;25.55;3.67;;;;;;;10.42;100.00;100443.53;5064057;28;20110;-75
2023/01/12 12:06:17;;;;;;;30.48;4.22;;;;;;;10.44;100.00;100435.72;5059813;28;20037;-74